Terminal Aerodrome Forecast
Issued by NWS Wilmington, OH

Current Version | Previous Version | Graphics & Text | Print | Product List | Glossary On
Versions: 1 2 3 4 5 6 7 8 9 10 11 12 13 14 15 16 17 18 19 20 21 22 23 24 25 26 27
000
FTUS41 KILN 220300 AAC
TAFDAY
TAF AMD
KDAY 220304Z 2203/2224 17004KT 6SM -TSRA BR SCT040CB BKN100 OVC140
      TEMPO 2203/2207 34022G34KT 2SM -TSRA OVC025CB
     FM220700 23006KT 5SM BR VCSH BKN012
     FM221300 23006KT P6SM VCSH BKN015
     FM221500 25008KT P6SM -SHRA VCTS BKN022CB
     FM221900 26009KT P6SM BKN035
     FM222300 27007KT P6SM VCTS BKN040CB=

USA.gov is the U.S. government's official web portal to all federal, state and local government web resources and services.